sensor_id;sensor_type;location;lat;lon;timestamp;P1;durP1;ratioP1;P2;durP2;ratioP2
34497;SDS011;20744;50.938;7.286;2022-12-18T00:00:43;31.15;;;14.82;;
34497;SDS011;20744;50.938;7.286;2022-12-18T00:03:11;32.72;;;15.15;;
34497;SDS011;20744;50.938;7.286;2022-12-18T00:05:46;32.67;;;14.55;;
34497;SDS011;20744;50.938;7.286;2022-12-18T00:08:14;25.17;;;13.98;;
34497;SDS011;20744;50.938;7.286;2022-12-18T00:10:41;27.52;;;14.45;;
34497;SDS011;20744;50.938;7.286;2022-12-18T00:13:08;31.83;;;14.70;;
34497;SDS011;20744;50.938;7.286;2022-12-18T00:15:36;29.88;;;15.43;;
34497;SDS011;20744;50.938;7.286;2022-12-18T00:18:03;28.88;;;14.55;;
34497;SDS011;20744;50.938;7.286;2022-12-18T00:20:31;25.83;;;13.45;;
34497;SDS011;20744;50.938;7.286;2022-12-18T00:22:59;32.47;;;13.70;;
34497;SDS011;20744;50.938;7.286;2022-12-18T00:25:26;26.30;;;12.85;;
34497;SDS011;20744;50.938;7.286;2022-12-18T00:27:54;23.92;;;12.80;;
34497;SDS011;20744;50.938;7.286;2022-12-18T00:30:21;26.08;;;13.48;;
34497;SDS011;20744;50.938;7.286;2022-12-18T00:32:48;26.65;;;12.90;;
34497;SDS011;20744;50.938;7.286;2022-12-18T00:35:15;24.90;;;13.07;;
34497;SDS011;20744;50.938;7.286;2022-12-18T00:37:43;27.33;;;13.45;;
34497;SDS011;20744;50.938;7.286;2022-12-18T00:40:11;32.55;;;16.80;;
34497;SDS011;20744;50.938;7.286;2022-12-18T00:42:40;39.50;;;19.02;;
34497;SDS011;20744;50.938;7.286;2022-12-18T00:45:21;29.88;;;16.25;;
34497;SDS011;20744;50.938;7.286;2022-12-18T00:47:49;39.33;;;18.38;;
34497;SDS011;20744;50.938;7.286;2022-12-18T00:50:16;33.70;;;16.67;;
34497;SDS011;20744;50.938;7.286;2022-12-18T00:52:43;25.98;;;12.18;;
34497;SDS011;20744;50.938;7.286;2022-12-18T00:55:12;23.85;;;12.68;;
34497;SDS011;20744;50.938;7.286;2022-12-18T00:57:40;29.65;;;13.38;;
34497;SDS011;20744;50.938;7.286;2022-12-18T01:00:08;30.13;;;15.45;;
34497;SDS011;20744;50.938;7.286;2022-12-18T01:02:35;30.25;;;15.25;;
34497;SDS011;20744;50.938;7.286;2022-12-18T01:05:03;29.90;;;14.40;;
34497;SDS011;20744;50.938;7.286;2022-12-18T01:07:30;29.75;;;14.15;;
34497;SDS011;20744;50.938;7.286;2022-12-18T01:09:58;27.35;;;13.95;;
34497;SDS011;20744;50.938;7.286;2022-12-18T01:12:26;24.08;;;13.02;;
34497;SDS011;20744;50.938;7.286;2022-12-18T01:14:53;25.58;;;12.98;;
34497;SDS011;20744;50.938;7.286;2022-12-18T01:17:21;26.83;;;13.38;;
34497;SDS011;20744;50.938;7.286;2022-12-18T01:19:48;26.00;;;13.38;;
34497;SDS011;20744;50.938;7.286;2022-12-18T01:22:15;24.50;;;12.80;;
34497;SDS011;20744;50.938;7.286;2022-12-18T01:24:43;24.30;;;11.98;;
34497;SDS011;20744;50.938;7.286;2022-12-18T01:27:10;23.75;;;12.70;;
34497;SDS011;20744;50.938;7.286;2022-12-18T01:29:38;22.58;;;11.57;;
34497;SDS011;20744;50.938;7.286;2022-12-18T01:32:06;24.30;;;11.40;;
34497;SDS011;20744;50.938;7.286;2022-12-18T01:34:34;22.63;;;11.80;;
34497;SDS011;20744;50.938;7.286;2022-12-18T01:37:02;24.45;;;11.93;;
34497;SDS011;20744;50.938;7.286;2022-12-18T01:39:29;25.73;;;11.60;;
34497;SDS011;20744;50.938;7.286;2022-12-18T01:41:57;23.00;;;11.05;;
34497;SDS011;20744;50.938;7.286;2022-12-18T01:47:33;19.75;;;10.60;;
34497;SDS011;20744;50.938;7.286;2022-12-18T01:50:03;21.67;;;10.75;;
34497;SDS011;20744;50.938;7.286;2022-12-18T01:52:32;21.83;;;10.38;;
34497;SDS011;20744;50.938;7.286;2022-12-18T01:55:00;23.85;;;10.52;;
34497;SDS011;20744;50.938;7.286;2022-12-18T01:57:28;19.20;;;9.75;;
34497;SDS011;20744;50.938;7.286;2022-12-18T01:59:57;20.77;;;10.65;;
34497;SDS011;20744;50.938;7.286;2022-12-18T02:02:26;18.05;;;9.98;;
34497;SDS011;20744;50.938;7.286;2022-12-18T02:04:56;22.85;;;10.25;;
34497;SDS011;20744;50.938;7.286;2022-12-18T02:07:24;20.83;;;10.82;;
34497;SDS011;20744;50.938;7.286;2022-12-18T02:09:55;21.50;;;11.05;;
34497;SDS011;20744;50.938;7.286;2022-12-18T02:12:25;21.45;;;11.23;;
34497;SDS011;20744;50.938;7.286;2022-12-18T02:14:55;18.60;;;10.02;;
34497;SDS011;20744;50.938;7.286;2022-12-18T02:17:25;19.63;;;10.63;;
34497;SDS011;20744;50.938;7.286;2022-12-18T02:20:00;23.50;;;9.63;;
34497;SDS011;20744;50.938;7.286;2022-12-18T02:24:59;19.23;;;9.43;;
34497;SDS011;20744;50.938;7.286;2022-12-18T02:27:29;17.08;;;9.32;;
34497;SDS011;20744;50.938;7.286;2022-12-18T02:29:57;17.48;;;9.43;;
34497;SDS011;20744;50.938;7.286;2022-12-18T02:32:26;20.20;;;10.23;;
34497;SDS011;20744;50.938;7.286;2022-12-18T02:34:55;18.60;;;9.73;;
34497;SDS011;20744;50.938;7.286;2022-12-18T02:37:23;21.65;;;10.13;;
34497;SDS011;20744;50.938;7.286;2022-12-18T02:39:51;21.08;;;9.98;;
34497;SDS011;20744;50.938;7.286;2022-12-18T02:42:20;20.08;;;9.25;;
34497;SDS011;20744;50.938;7.286;2022-12-18T02:44:49;20.50;;;9.07;;
34497;SDS011;20744;50.938;7.286;2022-12-18T02:47:18;29.17;;;13.27;;
34497;SDS011;20744;50.938;7.286;2022-12-18T02:49:49;28.60;;;14.95;;
34497;SDS011;20744;50.938;7.286;2022-12-18T02:52:23;29.40;;;14.80;;
34497;SDS011;20744;50.938;7.286;2022-12-18T02:54:55;28.02;;;13.90;;
34497;SDS011;20744;50.938;7.286;2022-12-18T02:57:25;21.27;;;11.65;;
34497;SDS011;20744;50.938;7.286;2022-12-18T02:59:59;23.48;;;10.68;;
34497;SDS011;20744;50.938;7.286;2022-12-18T03:02:29;17.88;;;9.18;;
34497;SDS011;20744;50.938;7.286;2022-12-18T03:04:58;16.40;;;9.65;;
34497;SDS011;20744;50.938;7.286;2022-12-18T03:07:32;20.40;;;9.20;;
34497;SDS011;20744;50.938;7.286;2022-12-18T03:10:01;18.35;;;9.13;;
34497;SDS011;20744;50.938;7.286;2022-12-18T03:12:30;20.30;;;9.70;;
34497;SDS011;20744;50.938;7.286;2022-12-18T03:15:00;17.13;;;8.50;;
34497;SDS011;20744;50.938;7.286;2022-12-18T03:17:30;18.88;;;10.30;;
34497;SDS011;20744;50.938;7.286;2022-12-18T03:19:58;18.50;;;9.82;;
34497;SDS011;20744;50.938;7.286;2022-12-18T03:22:27;20.98;;;9.52;;
34497;SDS011;20744;50.938;7.286;2022-12-18T03:24:55;17.48;;;9.07;;
34497;SDS011;20744;50.938;7.286;2022-12-18T03:27:23;16.85;;;8.40;;
34497;SDS011;20744;50.938;7.286;2022-12-18T03:29:52;18.33;;;8.63;;
34497;SDS011;20744;50.938;7.286;2022-12-18T03:32:24;17.35;;;8.73;;
34497;SDS011;20744;50.938;7.286;2022-12-18T03:34:53;25.50;;;9.23;;
34497;SDS011;20744;50.938;7.286;2022-12-18T03:37:22;14.82;;;8.18;;
34497;SDS011;20744;50.938;7.286;2022-12-18T03:39:49;15.65;;;7.88;;
34497;SDS011;20744;50.938;7.286;2022-12-18T03:42:17;25.20;;;10.82;;
34497;SDS011;20744;50.938;7.286;2022-12-18T03:44:51;17.85;;;9.30;;
34497;SDS011;20744;50.938;7.286;2022-12-18T03:47:21;20.05;;;11.30;;
34497;SDS011;20744;50.938;7.286;2022-12-18T03:49:55;20.15;;;9.68;;
34497;SDS011;20744;50.938;7.286;2022-12-18T03:52:25;15.57;;;8.52;;
34497;SDS011;20744;50.938;7.286;2022-12-18T03:54:53;19.17;;;8.75;;
34497;SDS011;20744;50.938;7.286;2022-12-18T03:57:24;21.75;;;10.88;;
34497;SDS011;20744;50.938;7.286;2022-12-18T03:59:54;20.13;;;10.25;;
34497;SDS011;20744;50.938;7.286;2022-12-18T04:02:23;20.58;;;10.38;;
34497;SDS011;20744;50.938;7.286;2022-12-18T04:04:51;24.92;;;13.02;;
34497;SDS011;20744;50.938;7.286;2022-12-18T04:07:20;20.17;;;10.90;;
34497;SDS011;20744;50.938;7.286;2022-12-18T04:09:48;19.67;;;9.75;;
34497;SDS011;20744;50.938;7.286;2022-12-18T04:12:17;15.43;;;8.57;;
34497;SDS011;20744;50.938;7.286;2022-12-18T04:14:44;14.75;;;8.10;;
34497;SDS011;20744;50.938;7.286;2022-12-18T04:17:11;16.42;;;8.07;;
34497;SDS011;20744;50.938;7.286;2022-12-18T04:19:38;14.52;;;7.97;;
34497;SDS011;20744;50.938;7.286;2022-12-18T04:22:05;16.10;;;8.35;;
34497;SDS011;20744;50.938;7.286;2022-12-18T04:24:34;17.27;;;8.25;;
34497;SDS011;20744;50.938;7.286;2022-12-18T04:27:01;21.00;;;11.07;;
34497;SDS011;20744;50.938;7.286;2022-12-18T04:29:29;21.13;;;10.77;;
34497;SDS011;20744;50.938;7.286;2022-12-18T04:31:56;16.80;;;8.70;;
34497;SDS011;20744;50.938;7.286;2022-12-18T04:34:23;18.95;;;8.07;;
34497;SDS011;20744;50.938;7.286;2022-12-18T04:36:50;17.92;;;8.02;;
34497;SDS011;20744;50.938;7.286;2022-12-18T04:39:17;14.85;;;8.52;;
34497;SDS011;20744;50.938;7.286;2022-12-18T04:41:46;14.88;;;7.38;;
34497;SDS011;20744;50.938;7.286;2022-12-18T04:44:13;15.13;;;7.63;;
34497;SDS011;20744;50.938;7.286;2022-12-18T04:46:41;15.52;;;7.88;;
34497;SDS011;20744;50.938;7.286;2022-12-18T04:49:08;16.10;;;8.27;;
34497;SDS011;20744;50.938;7.286;2022-12-18T04:51:35;13.35;;;6.88;;
34497;SDS011;20744;50.938;7.286;2022-12-18T04:54:03;18.73;;;7.90;;
34497;SDS011;20744;50.938;7.286;2022-12-18T04:56:30;14.75;;;8.85;;
34497;SDS011;20744;50.938;7.286;2022-12-18T04:58:59;18.70;;;9.35;;
34497;SDS011;20744;50.938;7.286;2022-12-18T05:01:26;19.42;;;9.10;;
34497;SDS011;20744;50.938;7.286;2022-12-18T05:03:53;18.83;;;8.43;;
34497;SDS011;20744;50.938;7.286;2022-12-18T05:06:21;18.23;;;8.35;;
34497;SDS011;20744;50.938;7.286;2022-12-18T05:08:48;15.90;;;8.43;;
34497;SDS011;20744;50.938;7.286;2022-12-18T05:11:15;19.15;;;8.43;;
34497;SDS011;20744;50.938;7.286;2022-12-18T05:13:43;17.05;;;8.98;;
34497;SDS011;20744;50.938;7.286;2022-12-18T05:16:12;16.40;;;9.48;;
34497;SDS011;20744;50.938;7.286;2022-12-18T05:18:39;18.60;;;8.77;;
34497;SDS011;20744;50.938;7.286;2022-12-18T05:21:06;18.25;;;9.10;;
34497;SDS011;20744;50.938;7.286;2022-12-18T05:23:33;15.65;;;7.85;;
34497;SDS011;20744;50.938;7.286;2022-12-18T05:26:01;19.67;;;8.98;;
34497;SDS011;20744;50.938;7.286;2022-12-18T05:28:29;18.92;;;9.25;;
34497;SDS011;20744;50.938;7.286;2022-12-18T05:30:57;18.08;;;9.02;;
34497;SDS011;20744;50.938;7.286;2022-12-18T05:33:27;14.95;;;8.32;;
34497;SDS011;20744;50.938;7.286;2022-12-18T05:35:54;17.17;;;8.60;;
34497;SDS011;20744;50.938;7.286;2022-12-18T05:38:22;23.25;;;10.38;;
34497;SDS011;20744;50.938;7.286;2022-12-18T05:40:50;17.58;;;9.82;;
34497;SDS011;20744;50.938;7.286;2022-12-18T05:43:18;20.15;;;9.45;;
34497;SDS011;20744;50.938;7.286;2022-12-18T05:45:46;15.35;;;8.75;;
34497;SDS011;20744;50.938;7.286;2022-12-18T05:48:14;14.63;;;8.50;;
34497;SDS011;20744;50.938;7.286;2022-12-18T05:50:43;19.15;;;9.65;;
34497;SDS011;20744;50.938;7.286;2022-12-18T05:53:11;18.60;;;9.15;;
34497;SDS011;20744;50.938;7.286;2022-12-18T05:55:39;17.58;;;8.30;;
34497;SDS011;20744;50.938;7.286;2022-12-18T05:58:07;16.48;;;8.48;;
34497;SDS011;20744;50.938;7.286;2022-12-18T06:00:35;18.17;;;8.23;;
34497;SDS011;20744;50.938;7.286;2022-12-18T06:03:05;16.92;;;8.13;;
34497;SDS011;20744;50.938;7.286;2022-12-18T06:05:34;16.45;;;8.75;;
34497;SDS011;20744;50.938;7.286;2022-12-18T06:08:03;15.02;;;8.85;;
34497;SDS011;20744;50.938;7.286;2022-12-18T06:10:30;16.23;;;8.52;;
34497;SDS011;20744;50.938;7.286;2022-12-18T06:12:57;16.70;;;9.10;;
34497;SDS011;20744;50.938;7.286;2022-12-18T06:15:25;16.52;;;8.48;;
34497;SDS011;20744;50.938;7.286;2022-12-18T06:17:52;17.25;;;9.35;;
34497;SDS011;20744;50.938;7.286;2022-12-18T06:20:19;16.50;;;8.73;;
34497;SDS011;20744;50.938;7.286;2022-12-18T06:22:46;18.80;;;8.75;;
34497;SDS011;20744;50.938;7.286;2022-12-18T06:25:15;17.70;;;8.55;;
34497;SDS011;20744;50.938;7.286;2022-12-18T06:27:42;17.50;;;8.80;;
34497;SDS011;20744;50.938;7.286;2022-12-18T06:30:10;18.42;;;9.65;;
34497;SDS011;20744;50.938;7.286;2022-12-18T06:32:38;15.50;;;8.98;;
34497;SDS011;20744;50.938;7.286;2022-12-18T06:35:05;17.60;;;9.25;;
34497;SDS011;20744;50.938;7.286;2022-12-18T06:37:33;18.38;;;8.98;;
34497;SDS011;20744;50.938;7.286;2022-12-18T06:40:00;21.70;;;10.05;;
34497;SDS011;20744;50.938;7.286;2022-12-18T06:42:29;18.63;;;9.82;;
34497;SDS011;20744;50.938;7.286;2022-12-18T06:44:57;17.27;;;8.77;;
34497;SDS011;20744;50.938;7.286;2022-12-18T06:47:24;16.17;;;8.93;;
34497;SDS011;20744;50.938;7.286;2022-12-18T06:49:51;16.25;;;8.88;;
34497;SDS011;20744;50.938;7.286;2022-12-18T06:52:18;20.45;;;9.52;;
34497;SDS011;20744;50.938;7.286;2022-12-18T06:54:45;18.08;;;8.95;;
34497;SDS011;20744;50.938;7.286;2022-12-18T06:57:13;18.15;;;9.10;;
34497;SDS011;20744;50.938;7.286;2022-12-18T06:59:41;18.10;;;9.05;;
34497;SDS011;20744;50.938;7.286;2022-12-18T07:02:10;19.23;;;9.73;;
34497;SDS011;20744;50.938;7.286;2022-12-18T07:04:39;17.67;;;9.50;;
34497;SDS011;20744;50.938;7.286;2022-12-18T07:07:06;20.92;;;9.82;;
34497;SDS011;20744;50.938;7.286;2022-12-18T07:09:33;18.58;;;9.43;;
34497;SDS011;20744;50.938;7.286;2022-12-18T07:12:00;17.83;;;8.95;;
34497;SDS011;20744;50.938;7.286;2022-12-18T07:14:29;17.77;;;8.48;;
34497;SDS011;20744;50.938;7.286;2022-12-18T07:16:58;15.18;;;8.65;;
34497;SDS011;20744;50.938;7.286;2022-12-18T07:19:25;20.13;;;9.15;;
34497;SDS011;20744;50.938;7.286;2022-12-18T07:21:52;19.25;;;9.25;;
34497;SDS011;20744;50.938;7.286;2022-12-18T07:24:20;19.23;;;9.18;;
34497;SDS011;20744;50.938;7.286;2022-12-18T07:26:47;17.92;;;8.80;;
34497;SDS011;20744;50.938;7.286;2022-12-18T07:29:14;18.92;;;9.07;;
34497;SDS011;20744;50.938;7.286;2022-12-18T07:31:42;18.55;;;8.82;;
34497;SDS011;20744;50.938;7.286;2022-12-18T07:34:11;17.60;;;8.85;;
34497;SDS011;20744;50.938;7.286;2022-12-18T07:36:38;16.98;;;9.10;;
34497;SDS011;20744;50.938;7.286;2022-12-18T07:39:05;18.23;;;9.55;;
34497;SDS011;20744;50.938;7.286;2022-12-18T07:41:32;16.52;;;9.07;;
34497;SDS011;20744;50.938;7.286;2022-12-18T07:44:00;23.08;;;10.93;;
34497;SDS011;20744;50.938;7.286;2022-12-18T07:46:27;17.95;;;10.75;;
34497;SDS011;20744;50.938;7.286;2022-12-18T07:48:54;20.23;;;9.95;;
34497;SDS011;20744;50.938;7.286;2022-12-18T07:51:23;20.48;;;10.50;;
34497;SDS011;20744;50.938;7.286;2022-12-18T07:53:50;22.92;;;10.90;;
34497;SDS011;20744;50.938;7.286;2022-12-18T07:56:17;24.08;;;12.95;;
34497;SDS011;20744;50.938;7.286;2022-12-18T07:58:45;19.63;;;12.07;;
34497;SDS011;20744;50.938;7.286;2022-12-18T08:01:12;24.10;;;12.27;;
34497;SDS011;20744;50.938;7.286;2022-12-18T08:03:40;23.10;;;11.07;;
34497;SDS011;20744;50.938;7.286;2022-12-18T08:06:08;21.88;;;11.93;;
34497;SDS011;20744;50.938;7.286;2022-12-18T08:08:36;20.42;;;11.07;;
34497;SDS011;20744;50.938;7.286;2022-12-18T08:11:05;22.55;;;11.63;;
34497;SDS011;20744;50.938;7.286;2022-12-18T08:13:32;24.60;;;11.38;;
34497;SDS011;20744;50.938;7.286;2022-12-18T08:16:00;20.60;;;9.85;;
34497;SDS011;20744;50.938;7.286;2022-12-18T08:18:28;20.27;;;10.50;;
34497;SDS011;20744;50.938;7.286;2022-12-18T08:20:55;22.73;;;10.65;;
34497;SDS011;20744;50.938;7.286;2022-12-18T08:23:23;21.05;;;10.13;;
34497;SDS011;20744;50.938;7.286;2022-12-18T08:25:51;22.13;;;10.57;;
34497;SDS011;20744;50.938;7.286;2022-12-18T08:28:18;24.15;;;10.63;;
34497;SDS011;20744;50.938;7.286;2022-12-18T08:30:46;20.30;;;9.85;;
34497;SDS011;20744;50.938;7.286;2022-12-18T08:33:13;17.83;;;9.95;;
34497;SDS011;20744;50.938;7.286;2022-12-18T08:35:40;20.92;;;9.60;;
34497;SDS011;20744;50.938;7.286;2022-12-18T08:38:07;17.60;;;9.68;;
34497;SDS011;20744;50.938;7.286;2022-12-18T08:40:34;15.90;;;9.40;;
34497;SDS011;20744;50.938;7.286;2022-12-18T08:43:03;19.63;;;9.85;;
34497;SDS011;20744;50.938;7.286;2022-12-18T08:45:48;17.88;;;9.38;;
34497;SDS011;20744;50.938;7.286;2022-12-18T08:48:15;17.45;;;8.95;;
34497;SDS011;20744;50.938;7.286;2022-12-18T08:50:43;18.73;;;9.23;;
34497;SDS011;20744;50.938;7.286;2022-12-18T08:53:10;16.35;;;8.85;;
34497;SDS011;20744;50.938;7.286;2022-12-18T08:55:37;15.10;;;8.40;;
34497;SDS011;20744;50.938;7.286;2022-12-18T08:58:06;15.25;;;8.10;;
34497;SDS011;20744;50.938;7.286;2022-12-18T09:00:33;14.70;;;8.32;;
34497;SDS011;20744;50.938;7.286;2022-12-18T09:03:00;21.70;;;10.27;;
34497;SDS011;20744;50.938;7.286;2022-12-18T09:05:27;15.95;;;8.65;;
34497;SDS011;20744;50.938;7.286;2022-12-18T09:07:55;19.42;;;9.63;;
34497;SDS011;20744;50.938;7.286;2022-12-18T09:10:22;17.85;;;9.38;;
34497;SDS011;20744;50.938;7.286;2022-12-18T09:12:49;18.33;;;9.95;;
34497;SDS011;20744;50.938;7.286;2022-12-18T09:15:18;15.40;;;8.45;;
34497;SDS011;20744;50.938;7.286;2022-12-18T09:17:45;17.52;;;8.35;;
34497;SDS011;20744;50.938;7.286;2022-12-18T09:20:13;16.90;;;9.35;;
34497;SDS011;20744;50.938;7.286;2022-12-18T09:22:40;16.52;;;9.63;;
34497;SDS011;20744;50.938;7.286;2022-12-18T09:25:07;15.35;;;8.60;;
34497;SDS011;20744;50.938;7.286;2022-12-18T09:27:34;14.85;;;8.55;;
34497;SDS011;20744;50.938;7.286;2022-12-18T09:30:02;17.33;;;9.10;;
34497;SDS011;20744;50.938;7.286;2022-12-18T09:32:31;14.60;;;7.97;;
34497;SDS011;20744;50.938;7.286;2022-12-18T09:34:58;14.60;;;8.38;;
34497;SDS011;20744;50.938;7.286;2022-12-18T09:37:26;16.23;;;8.95;;
34497;SDS011;20744;50.938;7.286;2022-12-18T09:39:53;14.30;;;8.25;;
34497;SDS011;20744;50.938;7.286;2022-12-18T09:42:21;17.73;;;9.15;;
34497;SDS011;20744;50.938;7.286;2022-12-18T09:44:49;21.20;;;8.45;;
34497;SDS011;20744;50.938;7.286;2022-12-18T09:47:17;15.30;;;7.97;;
34497;SDS011;20744;50.938;7.286;2022-12-18T09:49:48;14.63;;;7.95;;
34497;SDS011;20744;50.938;7.286;2022-12-18T09:52:17;16.05;;;7.90;;
34497;SDS011;20744;50.938;7.286;2022-12-18T09:54:47;14.48;;;8.15;;
34497;SDS011;20744;50.938;7.286;2022-12-18T09:57:16;14.88;;;8.32;;
34497;SDS011;20744;50.938;7.286;2022-12-18T10:00:36;14.55;;;6.93;;
34497;SDS011;20744;50.938;7.286;2022-12-18T10:03:08;14.48;;;7.35;;
34497;SDS011;20744;50.938;7.286;2022-12-18T10:05:37;12.77;;;6.50;;
34497;SDS011;20744;50.938;7.286;2022-12-18T10:08:07;11.15;;;5.90;;
34497;SDS011;20744;50.938;7.286;2022-12-18T10:10:38;18.20;;;8.02;;
34497;SDS011;20744;50.938;7.286;2022-12-18T10:13:12;17.60;;;8.55;;
34497;SDS011;20744;50.938;7.286;2022-12-18T10:15:47;17.70;;;8.68;;
34497;SDS011;20744;50.938;7.286;2022-12-18T10:18:29;17.58;;;9.07;;
34497;SDS011;20744;50.938;7.286;2022-12-18T10:21:04;17.42;;;8.43;;
34497;SDS011;20744;50.938;7.286;2022-12-18T10:23:33;13.88;;;7.43;;
34497;SDS011;20744;50.938;7.286;2022-12-18T10:26:03;16.13;;;7.85;;
34497;SDS011;20744;50.938;7.286;2022-12-18T10:28:32;12.88;;;6.75;;
34497;SDS011;20744;50.938;7.286;2022-12-18T10:31:05;12.25;;;7.18;;
34497;SDS011;20744;50.938;7.286;2022-12-18T10:33:33;13.02;;;6.82;;
34497;SDS011;20744;50.938;7.286;2022-12-18T10:36:00;12.48;;;7.50;;
34497;SDS011;20744;50.938;7.286;2022-12-18T10:38:28;15.00;;;7.63;;
34497;SDS011;20744;50.938;7.286;2022-12-18T10:40:57;11.52;;;6.45;;
34497;SDS011;20744;50.938;7.286;2022-12-18T10:43:26;13.07;;;7.05;;
34497;SDS011;20744;50.938;7.286;2022-12-18T10:46:01;12.15;;;6.40;;
34497;SDS011;20744;50.938;7.286;2022-12-18T10:48:32;14.63;;;7.10;;
34497;SDS011;20744;50.938;7.286;2022-12-18T10:51:00;13.13;;;6.72;;
34497;SDS011;20744;50.938;7.286;2022-12-18T10:53:28;12.38;;;6.93;;
34497;SDS011;20744;50.938;7.286;2022-12-18T10:55:57;12.00;;;6.65;;
34497;SDS011;20744;50.938;7.286;2022-12-18T10:58:26;14.23;;;7.20;;
34497;SDS011;20744;50.938;7.286;2022-12-18T11:01:10;11.98;;;6.93;;
34497;SDS011;20744;50.938;7.286;2022-12-18T11:03:39;13.52;;;7.72;;
34497;SDS011;20744;50.938;7.286;2022-12-18T11:06:08;13.30;;;7.40;;
34497;SDS011;20744;50.938;7.286;2022-12-18T11:08:36;15.77;;;8.18;;
34497;SDS011;20744;50.938;7.286;2022-12-18T11:11:04;12.98;;;7.93;;
34497;SDS011;20744;50.938;7.286;2022-12-18T11:13:34;14.13;;;8.07;;
34497;SDS011;20744;50.938;7.286;2022-12-18T11:16:01;15.75;;;8.38;;
34497;SDS011;20744;50.938;7.286;2022-12-18T11:18:28;14.93;;;7.63;;
34497;SDS011;20744;50.938;7.286;2022-12-18T11:20:58;16.42;;;7.72;;
34497;SDS011;20744;50.938;7.286;2022-12-18T11:23:26;14.88;;;8.40;;
34497;SDS011;20744;50.938;7.286;2022-12-18T11:25:55;15.80;;;8.50;;
34497;SDS011;20744;50.938;7.286;2022-12-18T11:28:27;13.48;;;7.30;;
34497;SDS011;20744;50.938;7.286;2022-12-18T11:33:42;14.60;;;8.57;;
34497;SDS011;20744;50.938;7.286;2022-12-18T11:36:13;14.50;;;7.90;;
34497;SDS011;20744;50.938;7.286;2022-12-18T11:38:41;13.70;;;8.30;;
34497;SDS011;20744;50.938;7.286;2022-12-18T11:41:13;15.73;;;8.05;;
34497;SDS011;20744;50.938;7.286;2022-12-18T11:43:44;13.82;;;8.10;;
34497;SDS011;20744;50.938;7.286;2022-12-18T11:46:15;20.42;;;8.75;;
34497;SDS011;20744;50.938;7.286;2022-12-18T11:48:44;16.75;;;9.10;;
34497;SDS011;20744;50.938;7.286;2022-12-18T11:51:18;15.73;;;9.02;;
34497;SDS011;20744;50.938;7.286;2022-12-18T11:53:51;16.10;;;9.10;;
34497;SDS011;20744;50.938;7.286;2022-12-18T11:56:25;15.35;;;9.48;;
34497;SDS011;20744;50.938;7.286;2022-12-18T11:58:55;16.83;;;9.00;;
34497;SDS011;20744;50.938;7.286;2022-12-18T12:01:30;17.08;;;8.93;;
34497;SDS011;20744;50.938;7.286;2022-12-18T12:06:53;14.98;;;8.30;;
34497;SDS011;20744;50.938;7.286;2022-12-18T12:09:24;14.95;;;8.88;;
34497;SDS011;20744;50.938;7.286;2022-12-18T12:11:58;17.50;;;8.98;;
34497;SDS011;20744;50.938;7.286;2022-12-18T12:14:33;17.05;;;8.90;;
34497;SDS011;20744;50.938;7.286;2022-12-18T12:17:04;18.17;;;9.80;;
34497;SDS011;20744;50.938;7.286;2022-12-18T12:19:38;16.52;;;9.25;;
34497;SDS011;20744;50.938;7.286;2022-12-18T12:22:11;19.02;;;9.82;;
34497;SDS011;20744;50.938;7.286;2022-12-18T12:24:45;18.48;;;10.50;;
34497;SDS011;20744;50.938;7.286;2022-12-18T12:27:17;17.95;;;9.57;;
34497;SDS011;20744;50.938;7.286;2022-12-18T12:29:50;20.70;;;10.85;;
34497;SDS011;20744;50.938;7.286;2022-12-18T12:32:24;18.13;;;9.60;;
34497;SDS011;20744;50.938;7.286;2022-12-18T12:34:54;19.63;;;10.18;;
34497;SDS011;20744;50.938;7.286;2022-12-18T12:37:28;21.13;;;11.05;;
34497;SDS011;20744;50.938;7.286;2022-12-18T12:39:57;18.90;;;10.48;;
34497;SDS011;20744;50.938;7.286;2022-12-18T12:42:26;19.70;;;10.80;;
34497;SDS011;20744;50.938;7.286;2022-12-18T12:45:26;21.40;;;11.10;;
34497;SDS011;20744;50.938;7.286;2022-12-18T12:47:55;20.85;;;10.38;;
34497;SDS011;20744;50.938;7.286;2022-12-18T12:50:23;20.23;;;10.98;;
34497;SDS011;20744;50.938;7.286;2022-12-18T12:52:53;23.08;;;11.93;;
34497;SDS011;20744;50.938;7.286;2022-12-18T12:55:21;20.80;;;11.55;;
34497;SDS011;20744;50.938;7.286;2022-12-18T12:57:52;20.10;;;11.57;;
34497;SDS011;20744;50.938;7.286;2022-12-18T13:00:22;21.70;;;11.43;;
34497;SDS011;20744;50.938;7.286;2022-12-18T13:02:51;21.55;;;11.43;;
34497;SDS011;20744;50.938;7.286;2022-12-18T13:05:23;20.60;;;11.80;;
34497;SDS011;20744;50.938;7.286;2022-12-18T13:07:52;21.38;;;11.45;;
34497;SDS011;20744;50.938;7.286;2022-12-18T13:10:25;20.10;;;11.30;;
34497;SDS011;20744;50.938;7.286;2022-12-18T13:12:53;22.85;;;12.13;;
34497;SDS011;20744;50.938;7.286;2022-12-18T13:15:23;22.23;;;11.60;;
34497;SDS011;20744;50.938;7.286;2022-12-18T13:18:02;22.02;;;12.48;;
34497;SDS011;20744;50.938;7.286;2022-12-18T13:20:32;23.45;;;12.43;;
34497;SDS011;20744;50.938;7.286;2022-12-18T13:23:01;20.60;;;11.15;;
34497;SDS011;20744;50.938;7.286;2022-12-18T13:25:45;20.67;;;11.13;;
34497;SDS011;20744;50.938;7.286;2022-12-18T13:28:12;22.65;;;12.13;;
34497;SDS011;20744;50.938;7.286;2022-12-18T13:30:44;21.48;;;11.85;;
34497;SDS011;20744;50.938;7.286;2022-12-18T13:36:00;20.17;;;12.13;;
34497;SDS011;20744;50.938;7.286;2022-12-18T13:38:33;24.98;;;13.13;;
34497;SDS011;20744;50.938;7.286;2022-12-18T13:41:01;22.80;;;13.15;;
34497;SDS011;20744;50.938;7.286;2022-12-18T13:43:31;23.80;;;13.73;;
34497;SDS011;20744;50.938;7.286;2022-12-18T13:46:04;22.88;;;12.73;;
34497;SDS011;20744;50.938;7.286;2022-12-18T13:48:33;23.00;;;12.10;;
34497;SDS011;20744;50.938;7.286;2022-12-18T13:51:01;23.08;;;12.60;;
34497;SDS011;20744;50.938;7.286;2022-12-18T13:53:31;23.55;;;12.93;;
34497;SDS011;20744;50.938;7.286;2022-12-18T13:56:01;23.65;;;13.10;;
34497;SDS011;20744;50.938;7.286;2022-12-18T13:58:28;22.75;;;13.75;;
34497;SDS011;20744;50.938;7.286;2022-12-18T14:00:56;23.95;;;13.15;;
34497;SDS011;20744;50.938;7.286;2022-12-18T14:03:25;25.75;;;13.68;;
34497;SDS011;20744;50.938;7.286;2022-12-18T14:05:54;23.83;;;14.23;;
34497;SDS011;20744;50.938;7.286;2022-12-18T14:08:21;23.65;;;13.65;;
34497;SDS011;20744;50.938;7.286;2022-12-18T14:10:51;27.42;;;13.85;;
34497;SDS011;20744;50.938;7.286;2022-12-18T14:13:23;24.48;;;13.55;;
34497;SDS011;20744;50.938;7.286;2022-12-18T14:15:51;23.10;;;11.65;;
34497;SDS011;20744;50.938;7.286;2022-12-18T14:18:21;26.42;;;13.63;;
34497;SDS011;20744;50.938;7.286;2022-12-18T14:20:50;26.42;;;13.82;;
34497;SDS011;20744;50.938;7.286;2022-12-18T14:23:25;25.55;;;13.57;;
34497;SDS011;20744;50.938;7.286;2022-12-18T14:28:21;24.48;;;13.27;;
34497;SDS011;20744;50.938;7.286;2022-12-18T14:30:49;28.42;;;13.70;;
34497;SDS011;20744;50.938;7.286;2022-12-18T14:33:17;24.63;;;13.73;;
34497;SDS011;20744;50.938;7.286;2022-12-18T14:35:52;25.40;;;13.13;;
34497;SDS011;20744;50.938;7.286;2022-12-18T14:38:21;21.60;;;12.65;;
34497;SDS011;20744;50.938;7.286;2022-12-18T14:40:51;26.05;;;13.23;;
34497;SDS011;20744;50.938;7.286;2022-12-18T14:43:20;25.65;;;13.18;;
34497;SDS011;20744;50.938;7.286;2022-12-18T14:45:48;29.98;;;14.07;;
34497;SDS011;20744;50.938;7.286;2022-12-18T14:48:17;26.10;;;14.40;;
34497;SDS011;20744;50.938;7.286;2022-12-18T14:50:45;28.27;;;14.23;;
34497;SDS011;20744;50.938;7.286;2022-12-18T14:53:18;27.35;;;14.07;;
34497;SDS011;20744;50.938;7.286;2022-12-18T14:55:46;27.48;;;14.82;;